Aviation Weather View - Albury, NSW
Albury
METAR YMAY 180800Z 01005KT 9999 SCT076 OVC089 14/10 Q1011
ADVISORY INFORMATION ONLY.
Information and images sourced on a "best effort" basis from
our own station 2.7NM north of the field at 1016ft AMSL.
Weather information is NOT from the Albury Airport.

Contact Ross on 0409-578-660
Updated 0827Z (18-Aug-2022 at 18:27:03 local)
Temperature 12.5 Deg C
QNH is 1012
Humidity is 100% RH
Dewpoint is 12.5 Deg C
Estimated Cloudbase is BELOW 1000 feet amsl
Wind: 4 KT, gusting to 10 KT from 000 degrees magnetic (348 true)
Runway 07 Crosswind 4KT Left to Right
Runway 25 Crosswind 4KT Right to Left 1KT downwind
Wind last 10 minutes: Average 4 KT
Solar Insolation: 0 W/m^2

TWR: 123.25 SMC: 121.8 AWIS: 134.525 ATIS: 115.6/133.85 Map
How to interpret the wind rose
Wind Rose
Solar Radiation Decoded METAR data
Albury Airport (94896, YMAY)
WMO Index: 95896
ID Name: YMAY
Date/Time: 18-Aug-2022 0800 UTC
Lat/Lon: 36.07S 146.95E
Wind: 010 deg true at 05.0 knots
Temperature: 14.0 deg C
Dewpoint: 9.8 deg C
QNH: 1011.6
Rain since 9am: 0.0
Rain last 10 mins: 0.0
Visibility: -9999 metres
AutoVisibility: 10000 metres
Max Wind Gust last 10 mins: 09.0 knots
Scattered 2310m (7576ft)
Overcast 2700m (8856ft)

Calculated humidity: 75.8 %RH